createdAt,value
2022-08-17T00:00:34.648Z,21.90
2022-08-17T00:03:25.734Z,21.80
2022-08-17T00:05:59.805Z,21.70
2022-08-17T00:08:39.738Z,21.60
2022-08-17T00:11:11.820Z,21.50
2022-08-17T00:13:48.104Z,21.40
2022-08-17T00:16:56.185Z,21.40
2022-08-17T00:19:24.813Z,21.30
2022-08-17T00:22:32.890Z,21.20
2022-08-17T00:24:43.741Z,21.20
2022-08-17T00:27:10.808Z,21.20
2022-08-17T00:29:38.389Z,21.10
2022-08-17T00:33:16.011Z,21.00
2022-08-17T00:34:53.076Z,21.00
2022-08-17T00:37:20.501Z,21.00
2022-08-17T00:39:47.746Z,20.90
2022-08-17T00:42:19.316Z,20.90
2022-08-17T00:44:46.987Z,20.80
2022-08-17T00:47:14.120Z,20.80
2022-08-17T00:49:41.205Z,20.80
2022-08-17T00:52:17.238Z,20.80
2022-08-17T00:54:50.185Z,20.70
2022-08-17T00:57:40.689Z,20.70
2022-08-17T01:00:33.316Z,20.70
2022-08-17T01:03:22.043Z,20.70
2022-08-17T01:05:54.241Z,20.70
2022-08-17T01:08:26.576Z,20.70
2022-08-17T01:11:01.815Z,20.60
2022-08-17T01:13:41.601Z,20.60
2022-08-17T01:16:31.158Z,20.60
2022-08-17T01:19:03.314Z,20.50
2022-08-17T01:22:14.432Z,20.50
2022-08-17T01:24:47.345Z,20.50
2022-08-17T01:27:18.499Z,20.40
2022-08-17T01:29:53.092Z,20.40
2022-08-17T01:32:20.952Z,20.30
2022-08-17T01:34:50.205Z,20.20
2022-08-17T01:37:21.552Z,20.20
2022-08-17T01:40:00.715Z,20.10
2022-08-17T01:42:38.046Z,20.10
2022-08-17T01:45:18.972Z,20.10
2022-08-17T01:47:46.230Z,20.00
2022-08-17T01:50:31.935Z,20.00
2022-08-17T01:53:07.913Z,19.90
2022-08-17T01:55:44.517Z,19.90
2022-08-17T01:58:11.926Z,19.90
2022-08-17T02:00:59.411Z,19.80
2022-08-17T02:03:29.629Z,19.80
2022-08-17T02:05:57.556Z,19.70
2022-08-17T02:08:39.164Z,19.70
2022-08-17T02:11:17.830Z,19.70
2022-08-17T02:13:49.525Z,19.60
2022-08-17T02:16:26.953Z,19.60
2022-08-17T02:19:10.854Z,19.60
2022-08-17T02:21:40.452Z,19.60
2022-08-17T02:24:12.417Z,19.60
2022-08-17T02:26:39.621Z,19.60
2022-08-17T02:29:07.347Z,19.60
2022-08-17T02:31:35.667Z,19.60
2022-08-17T02:34:04.778Z,19.50
2022-08-17T02:36:36.555Z,19.50
2022-08-17T02:39:08.666Z,19.50
2022-08-17T02:41:36.970Z,19.50
2022-08-17T02:44:06.288Z,19.50
2022-08-17T02:46:34.113Z,19.40
2022-08-17T02:49:01.405Z,19.40
2022-08-17T02:51:29.448Z,19.40
2022-08-17T02:54:02.187Z,19.40
2022-08-17T02:56:44.381Z,19.40
2022-08-17T02:59:11.507Z,19.30
2022-08-17T03:01:38.752Z,19.30
2022-08-17T03:04:07.021Z,19.30
2022-08-17T03:06:34.057Z,19.30
2022-08-17T03:09:01.325Z,19.30
2022-08-17T03:11:28.784Z,19.30
2022-08-17T03:13:55.916Z,19.30
2022-08-17T03:16:23.548Z,19.30
2022-08-17T03:18:50.869Z,19.30
2022-08-17T03:21:18.002Z,19.30
2022-08-17T03:23:45.309Z,19.20
2022-08-17T03:26:15.614Z,19.30
2022-08-17T03:28:43.636Z,19.30
2022-08-17T03:31:10.805Z,19.20
2022-08-17T03:33:38.204Z,19.30
2022-08-17T03:36:06.900Z,19.30
2022-08-17T03:38:39.433Z,19.30
2022-08-17T03:41:07.368Z,19.30
2022-08-17T03:43:34.798Z,19.30
2022-08-17T03:46:34.138Z,19.30
2022-08-17T03:49:24.098Z,19.30
2022-08-17T03:52:11.940Z,19.30
2022-08-17T03:54:57.842Z,19.30
2022-08-17T03:57:26.182Z,19.30
2022-08-17T03:59:54.455Z,19.30
2022-08-17T04:02:30.544Z,19.30
2022-08-17T04:04:58.734Z,19.30
2022-08-17T04:07:30.319Z,19.20
2022-08-17T04:09:58.065Z,19.20
2022-08-17T04:12:31.015Z,19.20
2022-08-17T04:14:59.243Z,19.10
2022-08-17T04:17:29.152Z,19.20
2022-08-17T04:19:57.342Z,19.10
2022-08-17T04:22:31.882Z,19.10
2022-08-17T04:25:19.326Z,19.20
2022-08-17T04:27:46.393Z,19.10
2022-08-17T04:30:13.973Z,19.10
2022-08-17T04:33:10.963Z,19.10
2022-08-17T04:35:49.977Z,19.20
2022-08-17T04:38:21.837Z,19.20
2022-08-17T04:41:08.010Z,19.20
2022-08-17T04:43:36.666Z,19.30
2022-08-17T04:46:19.941Z,19.30
2022-08-17T04:48:52.882Z,19.40
2022-08-17T04:51:32.397Z,19.40
2022-08-17T04:54:07.744Z,19.50
2022-08-17T04:56:36.804Z,19.60
2022-08-17T04:59:18.007Z,19.60
2022-08-17T05:01:48.179Z,19.70
2022-08-17T05:04:33.990Z,19.80
2022-08-17T05:07:04.162Z,19.90
2022-08-17T05:09:31.641Z,20.00
2022-08-17T05:12:02.510Z,20.00
2022-08-17T05:14:33.062Z,20.10
2022-08-17T05:17:01.563Z,20.20
2022-08-17T05:19:32.100Z,20.30
2022-08-17T05:21:59.126Z,20.30
2022-08-17T05:24:38.335Z,20.40
2022-08-17T05:27:09.915Z,20.50
2022-08-17T05:29:42.302Z,20.60
2022-08-17T05:32:38.550Z,20.70
2022-08-17T05:35:02.000Z,20.80
2022-08-17T05:37:29.046Z,20.90
2022-08-17T05:39:56.626Z,20.90
2022-08-17T05:42:24.173Z,21.10
2022-08-17T05:44:51.214Z,21.10
2022-08-17T05:47:18.902Z,21.20
2022-08-17T05:49:49.074Z,21.30
2022-08-17T05:52:40.300Z,21.50
2022-08-17T05:55:16.095Z,21.60
2022-08-17T05:58:00.217Z,21.70
2022-08-17T06:00:42.175Z,21.80
2022-08-17T06:03:46.823Z,21.90
2022-08-17T06:06:35.398Z,22.00
2022-08-17T06:09:40.988Z,22.20
2022-08-17T06:12:42.031Z,22.30
2022-08-17T06:15:50.116Z,22.40
2022-08-17T06:18:19.298Z,22.50
2022-08-17T06:20:54.698Z,22.70
2022-08-17T06:23:40.400Z,22.80
2022-08-17T06:26:20.678Z,22.90
2022-08-17T06:29:18.647Z,23.10
2022-08-17T06:31:46.781Z,23.20
2022-08-17T06:34:14.083Z,23.30
2022-08-17T06:37:34.210Z,23.50
2022-08-17T06:40:45.471Z,23.60
2022-08-17T06:43:40.165Z,23.80
2022-08-17T06:46:15.401Z,23.90
2022-08-17T06:49:09.053Z,24.10
2022-08-17T06:51:42.066Z,24.20
2022-08-17T06:54:39.288Z,24.30
2022-08-17T06:57:18.154Z,24.40
2022-08-17T07:00:08.250Z,24.50
2022-08-17T07:03:03.019Z,24.60
2022-08-17T07:05:49.663Z,24.80
2022-08-17T07:08:35.010Z,24.90
2022-08-17T07:11:13.465Z,25.00
2022-08-17T07:14:04.734Z,25.10
2022-08-17T07:17:01.963Z,25.20
2022-08-17T07:19:33.853Z,25.30
2022-08-17T07:22:57.470Z,25.40
2022-08-17T07:25:27.497Z,25.50
2022-08-17T07:28:00.289Z,25.60
2022-08-17T07:30:31.269Z,25.70
2022-08-17T07:33:20.276Z,25.70
2022-08-17T07:35:49.991Z,25.90
2022-08-17T07:38:26.876Z,25.90
2022-08-17T07:40:58.145Z,26.00
2022-08-17T07:43:35.218Z,26.10
2022-08-17T07:46:30.561Z,26.20
2022-08-17T07:49:08.021Z,26.30
2022-08-17T07:51:44.051Z,26.40
2022-08-17T07:54:23.238Z,26.50
2022-08-17T07:57:08.866Z,26.60
2022-08-17T07:59:40.761Z,26.70
2022-08-17T08:02:22.722Z,26.80
2022-08-17T08:05:06.798Z,26.90
2022-08-17T08:08:14.546Z,27.00
2022-08-17T08:10:45.221Z,27.10
2022-08-17T08:13:20.478Z,27.20
2022-08-17T08:16:17.702Z,27.30
2022-08-17T08:18:55.755Z,27.40
2022-08-17T08:21:44.160Z,27.40
2022-08-17T08:24:45.879Z,27.50
2022-08-17T08:27:44.217Z,27.60
2022-08-17T08:30:24.112Z,27.70
2022-08-17T08:33:38.129Z,27.80
2022-08-17T08:37:02.052Z,27.90
2022-08-17T08:39:43.587Z,27.90
2022-08-17T08:42:32.267Z,28.00
2022-08-17T08:45:09.559Z,28.10
2022-08-17T08:47:55.294Z,28.20
2022-08-17T08:50:46.822Z,28.30
2022-08-17T08:53:21.284Z,28.30
2022-08-17T08:55:56.430Z,28.40
2022-08-17T08:58:52.227Z,28.40
2022-08-17T09:01:55.008Z,28.60
2022-08-17T09:05:14.219Z,28.70
2022-08-17T09:08:19.297Z,28.70
2022-08-17T09:11:09.391Z,28.80
2022-08-17T09:13:56.800Z,28.90
2022-08-17T09:16:36.091Z,29.00
2022-08-17T09:19:11.892Z,29.10
2022-08-17T09:21:56.932Z,29.10
2022-08-17T09:24:46.174Z,29.20
2022-08-17T09:27:28.062Z,29.30
2022-08-17T09:30:06.801Z,29.30
2022-08-17T09:32:49.909Z,29.30
2022-08-17T09:35:48.008Z,29.40
2022-08-17T09:38:35.116Z,29.50
2022-08-17T09:41:27.275Z,29.50
2022-08-17T09:44:23.125Z,29.60
2022-08-17T09:47:06.260Z,29.60
2022-08-17T09:49:45.665Z,29.60
2022-08-17T09:52:27.257Z,29.80
2022-08-17T09:54:57.701Z,29.80
2022-08-17T09:57:43.005Z,29.80
2022-08-17T10:00:29.051Z,29.90
2022-08-17T10:03:09.660Z,30.00
2022-08-17T10:05:57.183Z,30.10
2022-08-17T10:08:28.245Z,30.20
2022-08-17T10:11:14.903Z,30.20
2022-08-17T10:13:59.524Z,30.30
2022-08-17T10:16:55.907Z,30.40
2022-08-17T10:19:38.877Z,30.50
2022-08-17T10:22:45.688Z,30.50
2022-08-17T10:25:54.027Z,30.60
2022-08-17T10:28:30.547Z,30.70
2022-08-17T10:31:34.236Z,30.80
2022-08-17T10:34:21.242Z,30.80
2022-08-17T10:37:25.227Z,30.90
2022-08-17T10:40:27.768Z,30.90
2022-08-17T10:43:21.313Z,31.00
2022-08-17T10:46:30.079Z,31.10
2022-08-17T10:49:17.462Z,31.10
2022-08-17T10:51:48.042Z,31.20
2022-08-17T10:54:49.093Z,31.20
2022-08-17T10:57:33.919Z,31.20
2022-08-17T11:00:39.569Z,31.30
2022-08-17T11:03:21.015Z,31.40
2022-08-17T11:06:34.256Z,31.40
2022-08-17T11:09:20.008Z,31.40
2022-08-17T11:12:16.001Z,31.60
2022-08-17T11:14:58.207Z,31.60
2022-08-17T11:17:57.723Z,31.70
2022-08-17T11:21:25.175Z,31.70
2022-08-17T11:24:32.939Z,31.80
2022-08-17T11:27:23.678Z,31.90
2022-08-17T11:30:02.716Z,32.00
2022-08-17T11:32:47.755Z,32.00
2022-08-17T11:35:21.989Z,32.00
2022-08-17T11:38:13.544Z,32.10
2022-08-17T11:41:14.071Z,32.20
2022-08-17T11:44:03.795Z,32.20
2022-08-17T11:47:15.278Z,32.30
2022-08-17T11:50:19.073Z,32.30
2022-08-17T11:52:49.498Z,32.30
2022-08-17T11:55:39.658Z,32.40
2022-08-17T11:58:41.664Z,32.40
2022-08-17T12:01:24.301Z,32.40
2022-08-17T12:03:57.747Z,32.50
2022-08-17T12:06:34.870Z,32.50
2022-08-17T12:09:13.810Z,32.50
2022-08-17T12:12:12.799Z,32.60
2022-08-17T12:15:09.486Z,32.60
2022-08-17T12:17:41.550Z,32.80
2022-08-17T12:20:27.943Z,33.10
2022-08-17T12:23:05.271Z,33.50
2022-08-17T12:26:05.267Z,34.00
2022-08-17T12:28:38.943Z,34.70
2022-08-17T12:31:45.909Z,35.40
2022-08-17T12:34:27.092Z,36.20
2022-08-17T12:37:11.070Z,36.90
2022-08-17T12:39:39.357Z,37.60
2022-08-17T12:42:23.697Z,38.30
2022-08-17T12:44:50.981Z,38.80
2022-08-17T12:47:22.642Z,39.40
2022-08-17T12:49:54.021Z,40.10
2022-08-17T12:52:24.591Z,40.70
2022-08-17T12:55:06.185Z,41.20
2022-08-17T12:57:46.634Z,41.80
2022-08-17T13:00:32.331Z,42.30
2022-08-17T13:03:09.642Z,42.90
2022-08-17T13:05:48.609Z,43.40
2022-08-17T13:08:38.034Z,44.00
2022-08-17T13:11:19.713Z,44.30
2022-08-17T13:13:54.724Z,44.80
2022-08-17T13:16:29.696Z,45.10
2022-08-17T13:19:40.475Z,45.50
2022-08-17T13:22:15.049Z,45.90
2022-08-17T13:25:00.700Z,46.20
2022-08-17T13:27:29.528Z,46.50
2022-08-17T13:30:07.965Z,46.80
2022-08-17T13:32:43.985Z,47.10
2022-08-17T13:35:41.003Z,47.30
2022-08-17T13:38:14.762Z,47.60
2022-08-17T13:40:50.143Z,47.80
2022-08-17T13:43:44.758Z,48.00
2022-08-17T13:46:26.985Z,48.40
2022-08-17T13:49:05.832Z,48.50
2022-08-17T13:51:44.506Z,48.70
2022-08-17T13:54:31.426Z,48.80
2022-08-17T13:57:01.360Z,48.90
2022-08-17T13:59:54.829Z,49.00
2022-08-17T14:02:28.456Z,49.20
2022-08-17T14:04:59.484Z,49.50
2022-08-17T14:07:36.103Z,49.80
2022-08-17T14:10:06.355Z,50.20
2022-08-17T14:12:35.584Z,50.40
2022-08-17T14:15:03.013Z,50.80
2022-08-17T14:17:36.329Z,51.10
2022-08-17T14:20:12.321Z,51.20
2022-08-17T14:22:44.950Z,51.40
2022-08-17T14:25:26.108Z,51.60
2022-08-17T14:27:54.255Z,51.70
2022-08-17T14:30:29.947Z,51.90
2022-08-17T14:32:58.944Z,52.10
2022-08-17T14:35:28.114Z,52.20
2022-08-17T14:37:56.148Z,52.20
2022-08-17T14:40:26.949Z,52.20
2022-08-17T14:42:56.933Z,52.10
2022-08-17T14:45:29.895Z,51.70
2022-08-17T14:48:04.770Z,51.30
2022-08-17T14:50:35.400Z,51.00
2022-08-17T14:53:05.695Z,50.80
2022-08-17T14:55:36.740Z,50.60
2022-08-17T14:58:04.151Z,50.60
2022-08-17T15:00:32.171Z,50.70
2022-08-17T15:03:01.471Z,50.90
2022-08-17T15:05:34.450Z,51.10
2022-08-17T15:08:03.473Z,51.20
2022-08-17T15:10:31.493Z,51.50
2022-08-17T15:12:59.857Z,51.70
2022-08-17T15:15:28.047Z,51.80
2022-08-17T15:17:55.612Z,51.90
2022-08-17T15:20:28.736Z,52.00
2022-08-17T15:22:58.813Z,52.00
2022-08-17T15:25:34.870Z,52.10
2022-08-17T15:28:02.453Z,52.10
2022-08-17T15:30:29.883Z,52.20
2022-08-17T15:32:58.853Z,52.10
2022-08-17T15:35:30.449Z,52.10
2022-08-17T15:38:10.713Z,52.20
2022-08-17T15:40:47.457Z,52.10
2022-08-17T15:43:27.679Z,52.10
2022-08-17T15:46:10.461Z,52.00
2022-08-17T15:48:41.950Z,51.80
2022-08-17T15:51:24.517Z,51.70
2022-08-17T15:53:54.785Z,51.60
2022-08-17T15:56:22.719Z,51.60
2022-08-17T15:58:50.610Z,51.40
2022-08-17T16:01:46.562Z,51.30
2022-08-17T16:04:26.845Z,51.20
2022-08-17T16:06:58.089Z,51.10
2022-08-17T16:09:25.075Z,50.80
2022-08-17T16:11:55.256Z,50.40
2022-08-17T16:14:24.487Z,50.10
2022-08-17T16:16:59.125Z,49.70
2022-08-17T16:19:26.215Z,49.20
2022-08-17T16:21:53.441Z,48.90
2022-08-17T16:24:20.455Z,48.50
2022-08-17T16:26:47.460Z,48.20
2022-08-17T16:29:15.934Z,47.90
2022-08-17T16:31:43.347Z,47.60
2022-08-17T16:34:18.046Z,47.20
2022-08-17T16:36:55.598Z,46.90
2022-08-17T16:39:29.350Z,46.50
2022-08-17T16:41:57.420Z,46.00
2022-08-17T16:44:25.961Z,45.70
2022-08-17T16:46:53.747Z,45.40
2022-08-17T16:49:35.992Z,45.10
2022-08-17T16:52:10.810Z,44.90
2022-08-17T16:54:44.360Z,44.70
2022-08-17T16:57:17.567Z,44.50
2022-08-17T16:59:50.197Z,44.20
2022-08-17T17:02:47.172Z,44.00
2022-08-17T17:05:48.481Z,43.50
2022-08-17T17:08:49.320Z,43.20
2022-08-17T17:11:28.364Z,42.60
2022-08-17T17:13:59.538Z,42.10
2022-08-17T17:16:37.648Z,41.60
2022-08-17T17:19:36.252Z,41.10
2022-08-17T17:22:30.988Z,40.60
2022-08-17T17:25:16.074Z,40.00
2022-08-17T17:28:07.592Z,39.30
2022-08-17T17:31:08.765Z,38.80
2022-08-17T17:33:47.805Z,38.10
2022-08-17T17:36:43.445Z,37.50
2022-08-17T17:39:41.375Z,37.00
2022-08-17T17:42:22.869Z,36.50
2022-08-17T17:45:09.058Z,36.00
2022-08-17T17:47:37.536Z,35.60
2022-08-17T17:50:06.977Z,35.20
2022-08-17T17:52:55.172Z,34.80
2022-08-17T17:55:51.748Z,34.50
2022-08-17T17:58:55.781Z,34.10
2022-08-17T18:01:30.803Z,33.70
2022-08-17T18:04:28.864Z,33.40
2022-08-17T18:07:28.406Z,33.10
2022-08-17T18:10:30.544Z,32.70
2022-08-17T18:13:12.283Z,32.30
2022-08-17T18:15:51.117Z,32.00
2022-08-17T18:18:18.079Z,31.80
2022-08-17T18:20:55.798Z,31.60
2022-08-17T18:23:28.221Z,31.30
2022-08-17T18:25:56.867Z,31.10
2022-08-17T18:28:38.920Z,30.90
2022-08-17T18:31:18.597Z,30.70
2022-08-17T18:33:50.576Z,30.50
2022-08-17T18:36:36.608Z,30.30
2022-08-17T18:39:21.454Z,30.20
2022-08-17T18:41:52.573Z,30.00
2022-08-17T18:44:32.761Z,29.90
2022-08-17T18:47:18.590Z,29.70
2022-08-17T18:49:53.583Z,29.60
2022-08-17T18:52:31.447Z,29.50
2022-08-17T18:55:15.816Z,29.30
2022-08-17T18:57:48.963Z,29.20
2022-08-17T19:00:40.205Z,29.10
2022-08-17T19:03:25.121Z,28.90
2022-08-17T19:06:21.492Z,28.80
2022-08-17T19:08:48.870Z,28.70
2022-08-17T19:11:34.348Z,28.60
2022-08-17T19:14:10.624Z,28.50
2022-08-17T19:16:49.350Z,28.40
2022-08-17T19:19:24.225Z,28.30
2022-08-17T19:21:58.995Z,28.20
2022-08-17T19:24:32.543Z,28.10
2022-08-17T19:27:17.965Z,28.10
2022-08-17T19:30:08.580Z,28.00
2022-08-17T19:32:36.525Z,27.90
2022-08-17T19:35:07.411Z,27.80
2022-08-17T19:37:53.754Z,27.70
2022-08-17T19:40:55.107Z,27.60
2022-08-17T19:43:22.206Z,27.60
2022-08-17T19:46:06.096Z,27.50
2022-08-17T19:49:11.885Z,27.40
2022-08-17T19:51:44.961Z,27.40
2022-08-17T19:54:24.907Z,27.30
2022-08-17T19:57:12.516Z,27.20
2022-08-17T19:59:57.760Z,27.10
2022-08-17T20:02:33.913Z,27.00
2022-08-17T20:05:26.936Z,27.00
2022-08-17T20:08:13.543Z,26.90
2022-08-17T20:10:59.657Z,26.90
2022-08-17T20:13:49.140Z,26.80
2022-08-17T20:16:19.353Z,26.80
2022-08-17T20:19:06.867Z,26.70
2022-08-17T20:21:44.233Z,26.60
2022-08-17T20:24:28.965Z,26.60
2022-08-17T20:27:05.182Z,26.60
2022-08-17T20:29:55.288Z,26.50
2022-08-17T20:32:30.075Z,26.40
2022-08-17T20:35:27.609Z,26.30
2022-08-17T20:38:36.187Z,26.30
2022-08-17T20:41:03.961Z,26.30
2022-08-17T20:43:33.927Z,26.20
2022-08-17T20:46:46.409Z,26.10
2022-08-17T20:49:44.935Z,26.10
2022-08-17T20:52:35.056Z,26.10
2022-08-17T20:55:04.441Z,26.00
2022-08-17T20:57:31.602Z,26.00
2022-08-17T21:00:15.366Z,26.00
2022-08-17T21:02:46.647Z,26.00
2022-08-17T21:05:38.961Z,25.90
2022-08-17T21:08:18.780Z,25.90
2022-08-17T21:10:47.196Z,25.90
2022-08-17T21:13:15.803Z,25.80
2022-08-17T21:15:53.102Z,25.80
2022-08-17T21:18:52.861Z,25.80
2022-08-17T21:21:43.089Z,25.70
2022-08-17T21:25:03.274Z,25.70
2022-08-17T21:27:39.565Z,25.60
2022-08-17T21:30:09.956Z,25.60
2022-08-17T21:32:41.903Z,25.50
2022-08-17T21:35:28.431Z,25.50
2022-08-17T21:38:03.681Z,25.50
2022-08-17T21:40:33.784Z,25.40
2022-08-17T21:43:24.217Z,25.40
2022-08-17T21:46:12.537Z,25.40
2022-08-17T21:48:48.291Z,25.30
2022-08-17T21:51:22.951Z,25.30
2022-08-17T21:53:57.316Z,25.20
2022-08-17T21:56:39.482Z,25.20
2022-08-17T21:59:38.406Z,25.10
2022-08-17T22:02:09.992Z,25.10
2022-08-17T22:04:41.493Z,25.00
2022-08-17T22:07:14.149Z,25.00
2022-08-17T22:09:50.003Z,25.00
2022-08-17T22:12:24.217Z,25.00
2022-08-17T22:15:04.332Z,24.90
2022-08-17T22:17:41.280Z,24.90
2022-08-17T22:20:15.888Z,24.90
2022-08-17T22:23:04.377Z,24.90
2022-08-17T22:25:36.115Z,24.80
2022-08-17T22:28:11.024Z,24.80
2022-08-17T22:30:46.943Z,24.70
2022-08-17T22:33:32.792Z,24.70
2022-08-17T22:36:28.946Z,24.70
2022-08-17T22:39:10.207Z,24.60
2022-08-17T22:41:51.336Z,24.60
2022-08-17T22:44:31.915Z,24.50
2022-08-17T22:47:19.452Z,24.50
2022-08-17T22:49:59.547Z,24.40
2022-08-17T22:52:58.745Z,24.40
2022-08-17T22:55:45.207Z,24.30
2022-08-17T22:58:38.968Z,24.30
2022-08-17T23:01:32.457Z,24.20
2022-08-17T23:04:04.724Z,24.20
2022-08-17T23:06:34.192Z,24.10
2022-08-17T23:09:04.645Z,24.10
2022-08-17T23:11:50.325Z,24.00
2022-08-17T23:14:20.416Z,23.90
2022-08-17T23:16:50.520Z,23.90
2022-08-17T23:19:21.035Z,23.80
2022-08-17T23:21:50.418Z,23.80
2022-08-17T23:24:28.595Z,23.80
2022-08-17T23:26:58.252Z,23.80
2022-08-17T23:29:29.391Z,23.80
2022-08-17T23:32:00.010Z,23.70
2022-08-17T23:34:28.399Z,23.70
2022-08-17T23:36:56.823Z,23.70
2022-08-17T23:39:28.055Z,23.70
2022-08-17T23:42:00.844Z,23.60
2022-08-17T23:44:28.975Z,23.60
2022-08-17T23:46:56.756Z,23.60
2022-08-17T23:49:25.025Z,23.60
2022-08-17T23:51:54.832Z,23.50
2022-08-17T23:54:43.977Z,23.50
2022-08-17T23:57:18.016Z,23.50
2022-08-17T23:59:46.070Z,23.50
